createdAt,value
2022-08-05T00:00:16.028Z,101605.28
2022-08-05T00:00:50.112Z,101606.06
2022-08-05T00:01:28.353Z,101610.38
2022-08-05T00:02:07.569Z,101603.66
2022-08-05T00:02:43.892Z,101612.31
2022-08-05T00:03:22.550Z,101611.16
2022-08-05T00:03:57.018Z,101612.00
2022-08-05T00:04:28.839Z,101612.44
2022-08-05T00:06:06.539Z,101619.59
2022-08-05T00:06:40.535Z,101622.00
2022-08-05T00:07:27.019Z,101622.78
2022-08-05T00:08:03.639Z,101625.13
2022-08-05T00:08:36.391Z,101623.91
2022-08-05T00:09:12.975Z,101618.75
2022-08-05T00:09:47.251Z,101624.28
2022-08-05T00:10:19.342Z,101628.25
2022-08-05T00:10:50.712Z,101624.28
2022-08-05T00:11:49.023Z,101623.50
2022-08-05T00:12:26.880Z,101623.91
2022-08-05T00:12:58.257Z,101631.81
2022-08-05T00:13:38.906Z,101630.59
2022-08-05T00:14:12.887Z,101624.66
2022-08-05T00:14:48.340Z,101627.78
2022-08-05T00:15:56.074Z,101628.19
2022-08-05T00:16:16.053Z,101627.41
2022-08-05T00:16:52.885Z,101633.72
2022-08-05T00:17:25.833Z,101636.13
2022-08-05T00:17:57.224Z,101635.41
2022-08-05T00:18:28.965Z,101632.28
2022-08-05T00:19:00.400Z,101629.94
2022-08-05T00:19:33.537Z,101622.41
2022-08-05T00:20:15.328Z,101629.94
2022-08-05T00:20:52.319Z,101620.50
2022-08-05T00:21:24.181Z,101624.06
2022-08-05T00:22:03.170Z,101616.53
2022-08-05T00:22:36.570Z,101615.31
2022-08-05T00:23:12.867Z,101620.44
2022-08-05T00:23:53.639Z,101619.59
2022-08-05T00:24:38.580Z,101620.78
2022-08-05T00:25:14.031Z,101604.97
2022-08-05T00:25:48.051Z,101612.50
2022-08-05T00:26:25.468Z,101607.38
2022-08-05T00:26:56.931Z,101608.94
2022-08-05T00:27:36.479Z,101610.50
2022-08-05T00:28:10.889Z,101607.75
2022-08-05T00:28:45.929Z,101611.66
2022-08-05T00:29:17.370Z,101614.06
2022-08-05T00:29:49.612Z,101608.94
2022-08-05T00:30:21.436Z,101608.56
2022-08-05T00:31:04.314Z,101610.56
2022-08-05T00:31:54.066Z,101616.53
2022-08-05T00:32:27.787Z,101614.09
2022-08-05T00:32:59.129Z,101619.66
2022-08-05T00:34:55.374Z,101615.31
2022-08-05T00:35:05.689Z,101614.47
2022-08-05T00:35:33.611Z,101608.94
2022-08-05T00:36:16.172Z,101610.94
2022-08-05T00:37:12.996Z,101605.81
2022-08-05T00:37:52.675Z,101602.72
2022-08-05T00:38:28.960Z,101601.16
2022-08-05T00:39:57.868Z,101598.38
2022-08-05T00:40:30.306Z,101603.91
2022-08-05T00:41:01.744Z,101609.44
2022-08-05T00:41:51.763Z,101602.72
2022-08-05T00:42:39.980Z,101607.47
2022-08-05T00:43:11.325Z,101613.00
2022-08-05T00:43:49.791Z,101611.00
2022-08-05T00:44:21.439Z,101610.22
2022-08-05T00:45:13.407Z,101616.53
2022-08-05T00:45:45.712Z,101615.31
2022-08-05T00:46:19.618Z,101615.75
2022-08-05T00:47:26.227Z,101616.97
2022-08-05T00:48:05.339Z,101617.75
2022-08-05T00:48:50.855Z,101619.31
2022-08-05T00:49:22.895Z,101619.31
2022-08-05T00:49:54.268Z,101613.78
2022-08-05T00:50:25.889Z,101614.56
2022-08-05T00:50:57.331Z,101611.00
2022-08-05T00:51:51.013Z,101611.78
2022-08-05T00:52:28.248Z,101607.78
2022-08-05T00:53:00.387Z,101601.47
2022-08-05T00:53:59.895Z,101601.06
2022-08-05T00:54:24.214Z,101610.56
2022-08-05T00:54:59.657Z,101611.00
2022-08-05T00:55:42.290Z,101613.41
2022-08-05T00:56:22.895Z,101614.25
2022-08-05T00:56:54.388Z,101607.94
2022-08-05T00:57:31.759Z,101619.00
2022-08-05T00:58:19.039Z,101612.75
2022-08-05T00:59:44.459Z,101617.56
2022-08-05T01:00:16.920Z,101620.38
2022-08-05T01:00:50.357Z,101620.81
2022-08-05T01:01:42.177Z,101621.56
2022-08-05T01:02:13.248Z,101624.00
2022-08-05T01:02:48.006Z,101627.56
2022-08-05T01:03:23.170Z,101614.50
2022-08-05T01:03:54.829Z,101617.59
2022-08-05T01:04:26.774Z,101614.06
2022-08-05T01:05:01.206Z,101617.19
2022-08-05T01:05:36.556Z,101616.03
2022-08-05T01:06:13.977Z,101607.41
2022-08-05T01:06:48.611Z,101610.16
2022-08-05T01:07:20.563Z,101612.94
2022-08-05T01:08:41.598Z,101605.84
2022-08-05T01:09:03.123Z,101611.78
2022-08-05T01:09:34.612Z,101609.44
2022-08-05T01:10:10.566Z,101605.16
2022-08-05T01:10:52.558Z,101606.34
2022-08-05T01:11:43.871Z,101605.56
2022-08-05T01:13:19.441Z,101614.25
2022-08-05T01:13:59.948Z,101613.81
2022-08-05T01:14:44.919Z,101617.38
2022-08-05T01:15:36.831Z,101609.06
2022-08-05T01:16:14.533Z,101625.66
2022-08-05T01:16:56.852Z,101618.16
2022-08-05T01:17:53.822Z,101616.16
2022-08-05T01:18:31.694Z,101618.56
2022-08-05T01:19:19.740Z,101614.25
2022-08-05T01:20:09.860Z,101624.94
2022-08-05T01:21:01.661Z,101617.88
2022-08-05T01:22:07.995Z,101617.16
2022-08-05T01:22:59.455Z,101620.34
2022-08-05T01:24:14.094Z,101616.38
2022-08-05T01:24:51.871Z,101617.94
2022-08-05T01:28:35.707Z,101624.66
2022-08-05T01:29:23.177Z,101632.97
2022-08-05T01:30:02.426Z,101627.44
2022-08-05T01:30:55.319Z,101619.91
2022-08-05T01:31:44.738Z,101623.47
2022-08-05T01:32:21.663Z,101623.88
2022-08-05T01:32:56.416Z,101621.13
2022-08-05T01:33:48.914Z,101621.16
2022-08-05T01:34:31.144Z,101627.91
2022-08-05T01:35:10.688Z,101629.84
2022-08-05T01:35:51.086Z,101623.53
2022-08-05T01:36:29.211Z,101625.09
2022-08-05T01:37:09.891Z,101626.66
2022-08-05T01:37:59.124Z,101632.97
2022-08-05T01:38:33.000Z,101629.41
2022-08-05T01:39:04.456Z,101626.66
2022-08-05T01:39:46.594Z,101625.09
2022-08-05T01:40:28.007Z,101623.53
2022-08-05T01:41:01.898Z,101627.06
2022-08-05T01:41:37.579Z,101625.09
2022-08-05T01:42:13.669Z,101623.09
2022-08-05T01:42:47.186Z,101621.13
2022-08-05T01:43:22.426Z,101627.44
2022-08-05T01:43:56.671Z,101629.00
2022-08-05T01:44:34.286Z,101629.00
2022-08-05T01:45:26.491Z,101634.53
2022-08-05T01:46:16.450Z,101634.94
2022-08-05T01:47:00.237Z,101644.03
2022-08-05T01:47:39.277Z,101645.59
2022-08-05T01:48:12.317Z,101637.72
2022-08-05T01:48:49.791Z,101647.25
2022-08-05T01:49:24.899Z,101640.59
2022-08-05T01:50:02.007Z,101648.50
2022-08-05T01:50:39.963Z,101646.53
2022-08-05T01:51:13.041Z,101647.72
2022-08-05T01:51:51.909Z,101642.19
2022-08-05T01:52:25.296Z,101643.41
2022-08-05T01:53:01.659Z,101648.50
2022-08-05T01:53:54.805Z,101650.44
2022-08-05T01:54:32.760Z,101653.63
2022-08-05T01:55:08.598Z,101657.19
2022-08-05T01:55:43.775Z,101657.19
2022-08-05T01:58:10.036Z,101649.66
2022-08-05T01:58:12.157Z,101656.75
2022-08-05T01:58:40.690Z,101647.69
2022-08-05T01:59:35.091Z,101641.78
2022-08-05T02:00:11.731Z,101641.00
2022-08-05T02:00:49.043Z,101646.53
2022-08-05T02:01:24.705Z,101642.19
2022-08-05T02:01:59.747Z,101639.44
2022-08-05T02:02:33.952Z,101639.47
2022-08-05T02:03:29.103Z,101636.34
2022-08-05T02:04:05.285Z,101637.97
2022-08-05T02:04:40.546Z,101635.63
2022-08-05T02:05:13.507Z,101639.19
2022-08-05T02:06:33.213Z,101645.06
2022-08-05T02:07:03.393Z,101639.88
2022-08-05T02:07:36.895Z,101638.69
2022-08-05T02:08:30.830Z,101637.50
2022-08-05T02:09:04.606Z,101638.66
2022-08-05T02:10:31.843Z,101639.44
2022-08-05T02:11:14.051Z,101642.19
2022-08-05T02:12:06.827Z,101636.66
2022-08-05T02:12:55.725Z,101636.28
2022-08-05T02:13:36.594Z,101641.41
2022-08-05T02:14:32.019Z,101639.44
2022-08-05T02:15:12.702Z,101636.66
2022-08-05T02:15:50.246Z,101633.13
2022-08-05T02:16:53.167Z,101630.75
2022-08-05T02:18:28.384Z,101623.66
2022-08-05T02:18:43.916Z,101630.41
2022-08-05T02:19:47.048Z,101628.84
2022-08-05T02:20:23.290Z,101625.28
2022-08-05T02:21:03.259Z,101624.50
2022-08-05T02:21:46.843Z,101629.25
2022-08-05T02:22:29.717Z,101634.34
2022-08-05T02:23:05.541Z,101634.78
2022-08-05T02:23:42.155Z,101637.97
2022-08-05T02:24:23.027Z,101638.41
2022-08-05T02:25:08.518Z,101649.03
2022-08-05T02:25:50.227Z,101649.88
2022-08-05T02:26:33.092Z,101651.06
2022-08-05T02:27:10.001Z,101645.16
2022-08-05T02:27:58.601Z,101643.97
2022-08-05T02:28:38.446Z,101644.38
2022-08-05T02:29:21.606Z,101631.75
2022-08-05T02:30:01.113Z,101644.44
2022-08-05T02:30:54.080Z,101648.03
2022-08-05T02:31:34.909Z,101639.00
2022-08-05T02:32:09.457Z,101641.75
2022-08-05T02:32:48.004Z,101639.00
2022-08-05T02:33:24.514Z,101631.06
2022-08-05T02:34:13.826Z,101628.31
2022-08-05T02:34:46.163Z,101628.69
2022-08-05T02:35:33.406Z,101626.69
2022-08-05T02:36:13.560Z,101630.25
2022-08-05T02:36:57.515Z,101628.25
2022-08-05T02:37:32.475Z,101631.81
2022-08-05T02:38:05.031Z,101629.81
2022-08-05T02:38:42.903Z,101627.47
2022-08-05T02:39:17.973Z,101631.81
2022-08-05T02:39:53.878Z,101628.69
2022-08-05T02:41:17.953Z,101634.19
2022-08-05T02:41:58.183Z,101624.72
2022-08-05T02:42:36.168Z,101630.66
2022-08-05T02:43:09.168Z,101632.63
2022-08-05T02:44:02.307Z,101627.91
2022-08-05T02:44:56.215Z,101625.94
2022-08-05T02:46:20.252Z,101630.34
2022-08-05T02:47:01.221Z,101626.03
2022-08-05T02:48:06.998Z,101628.78
2022-08-05T02:48:46.739Z,101629.56
2022-08-05T02:49:21.992Z,101630.34
2022-08-05T02:49:54.240Z,101628.00
2022-08-05T02:51:18.270Z,101631.66
2022-08-05T02:52:37.309Z,101627.72
2022-08-05T02:53:18.689Z,101624.97
2022-08-05T02:53:54.762Z,101629.72
2022-08-05T02:54:50.781Z,101624.19
2022-08-05T02:55:52.228Z,101626.56
2022-08-05T02:56:18.747Z,101627.81
2022-08-05T02:58:11.016Z,101627.59
2022-08-05T02:58:20.022Z,101624.34
2022-08-05T02:58:44.963Z,101625.25
2022-08-05T02:59:27.002Z,101625.25
2022-08-05T02:59:59.559Z,101626.03
2022-08-05T03:00:32.276Z,101622.47
2022-08-05T03:01:04.884Z,101614.59
2022-08-05T03:01:40.254Z,101623.25
2022-08-05T03:02:15.832Z,101619.31
2022-08-05T03:02:48.526Z,101612.56
2022-08-05T03:03:23.555Z,101617.69
2022-08-05T03:04:11.931Z,101617.28
2022-08-05T03:04:48.895Z,101612.50
2022-08-05T03:06:54.187Z,101611.31
2022-08-05T03:06:56.563Z,101611.31
2022-08-05T03:07:09.944Z,101617.19
2022-08-05T03:08:08.572Z,101618.75
2022-08-05T03:08:42.648Z,101615.97
2022-08-05T03:09:15.774Z,101626.97
2022-08-05T03:09:51.659Z,101617.91
2022-08-05T03:10:25.278Z,101622.25
2022-08-05T03:11:02.350Z,101625.78
2022-08-05T03:11:54.822Z,101621.03
2022-08-05T03:12:36.718Z,101621.81
2022-08-05T03:13:16.811Z,101622.63
2022-08-05T03:13:52.005Z,101626.16
2022-08-05T03:14:34.979Z,101628.13
2022-08-05T03:15:17.249Z,101634.06
2022-08-05T03:15:48.627Z,101632.94
2022-08-05T03:16:23.251Z,101623.84
2022-08-05T03:16:55.490Z,101631.34
2022-08-05T03:17:27.563Z,101630.56
2022-08-05T03:17:59.976Z,101622.28
2022-08-05T03:18:31.319Z,101621.88
2022-08-05T03:19:12.964Z,101630.56
2022-08-05T03:20:07.226Z,101623.13
2022-08-05T03:20:48.618Z,101631.84
2022-08-05T03:21:20.396Z,101638.94
2022-08-05T03:21:53.179Z,101640.91
2022-08-05T03:22:32.250Z,101639.72
2022-08-05T03:23:09.357Z,101644.84
2022-08-05T03:23:43.479Z,101635.31
2022-08-05T03:24:29.296Z,101635.31
2022-08-05T03:26:02.663Z,101629.78
2022-08-05T03:26:04.941Z,101629.78
2022-08-05T03:26:49.489Z,101636.16
2022-08-05T03:27:22.004Z,101637.78
2022-08-05T03:28:00.174Z,101641.31
2022-08-05T03:28:32.504Z,101641.31
2022-08-05T03:29:04.617Z,101636.22
2022-08-05T03:29:44.759Z,101638.56
2022-08-05T03:30:38.329Z,101634.22
2022-08-05T03:31:57.193Z,101633.44
2022-08-05T03:32:30.851Z,101627.13
2022-08-05T03:33:53.556Z,101618.44
2022-08-05T03:34:27.064Z,101624.75
2022-08-05T03:34:59.431Z,101620.78
2022-08-05T03:35:33.837Z,101624.34
2022-08-05T03:36:30.202Z,101620.38
2022-08-05T03:37:03.279Z,101623.91
2022-08-05T03:37:41.661Z,101625.50
2022-08-05T03:38:17.857Z,101621.94
2022-08-05T03:40:01.466Z,101618.41
2022-08-05T03:40:33.450Z,101622.34
2022-08-05T03:41:10.794Z,101627.88
2022-08-05T03:41:45.386Z,101622.34
2022-08-05T03:42:18.350Z,101623.13
2022-08-05T03:42:52.217Z,101619.97
2022-08-05T03:44:08.996Z,101618.41
2022-08-05T03:44:19.989Z,101618.41
2022-08-05T03:44:51.513Z,101627.09
2022-08-05T03:45:23.765Z,101630.66
2022-08-05T03:45:58.567Z,101623.91
2022-08-05T03:46:32.614Z,101625.13
2022-08-05T03:47:04.197Z,101625.91
2022-08-05T03:47:41.438Z,101625.13
2022-08-05T03:48:13.933Z,101627.88
2022-08-05T03:48:53.303Z,101630.66
2022-08-05T03:49:31.125Z,101625.13
2022-08-05T03:50:17.038Z,101630.66
2022-08-05T03:52:37.866Z,101629.06
2022-08-05T03:52:48.366Z,101637.00
2022-08-05T03:55:52.424Z,101632.28
2022-08-05T03:55:53.225Z,101635.44
2022-08-05T03:56:09.947Z,101637.41
2022-08-05T03:56:26.910Z,101638.59
2022-08-05T03:57:16.362Z,101640.59
2022-08-05T03:57:52.669Z,101637.81
2022-08-05T03:58:29.346Z,101641.78
2022-08-05T03:59:04.052Z,101641.78
2022-08-05T03:59:47.723Z,101646.53
2022-08-05T04:00:31.317Z,101641.00
2022-08-05T04:01:04.791Z,101643.75
2022-08-05T04:01:42.300Z,101643.34
2022-08-05T04:02:38.646Z,101637.81
2022-08-05T04:03:26.691Z,101641.00
2022-08-05T04:04:09.391Z,101642.97
2022-08-05T04:04:43.549Z,101644.16
2022-08-05T04:05:36.318Z,101640.63
2022-08-05T04:06:10.280Z,101642.19
2022-08-05T04:06:47.365Z,101645.38
2022-08-05T04:07:19.491Z,101643.38
2022-08-05T04:07:58.601Z,101643.38
2022-08-05T04:08:36.371Z,101640.66
2022-08-05T04:09:09.191Z,101636.69
2022-08-05T04:09:53.539Z,101639.47
2022-08-05T04:10:32.052Z,101638.25
2022-08-05T04:11:08.423Z,101642.22
2022-08-05T04:11:47.722Z,101640.25
2022-08-05T04:12:23.516Z,101638.25
2022-08-05T04:12:58.771Z,101641.03
2022-08-05T04:13:50.246Z,101636.28
2022-08-05T04:14:30.646Z,101642.22
2022-08-05T04:15:02.728Z,101640.66
2022-08-05T04:15:36.083Z,101648.94
2022-08-05T04:16:09.436Z,101638.69
2022-08-05T04:16:47.464Z,101643.41
2022-08-05T04:17:19.056Z,101643.41
2022-08-05T04:17:57.223Z,101637.91
2022-08-05T04:18:28.931Z,101642.63
2022-08-05T04:19:02.696Z,101643.03
2022-08-05T04:19:44.312Z,101635.59
2022-08-05T04:20:21.379Z,101638.00
2022-08-05T04:20:55.828Z,101644.34
2022-08-05T04:22:08.715Z,101642.38
2022-08-05T04:22:20.423Z,101641.19
2022-08-05T04:22:52.642Z,101639.97
2022-08-05T04:24:05.496Z,101641.59
2022-08-05T04:24:19.502Z,101645.91
2022-08-05T04:25:12.525Z,101647.88
2022-08-05T04:25:57.058Z,101651.44
2022-08-05T04:26:32.371Z,101649.47
2022-08-05T04:27:04.210Z,101653.00
2022-08-05T04:27:41.703Z,101648.28
2022-08-05T04:28:15.404Z,101645.91
2022-08-05T04:28:51.995Z,101653.03
2022-08-05T04:29:23.532Z,101649.50
2022-08-05T04:29:54.867Z,101648.72
2022-08-05T04:30:26.573Z,101645.94
2022-08-05T04:30:58.683Z,101648.72
2022-08-05T04:31:38.382Z,101649.50
2022-08-05T04:32:10.894Z,101652.66
2022-08-05T04:32:42.371Z,101655.44
2022-08-05T04:33:15.224Z,101649.91
2022-08-05T04:34:19.302Z,101651.47
2022-08-05T04:34:42.640Z,101653.03
2022-08-05T04:35:19.370Z,101649.09
2022-08-05T04:36:15.656Z,101653.41
2022-08-05T04:36:46.610Z,101649.88
2022-08-05T04:37:21.835Z,101654.66
2022-08-05T04:38:15.436Z,101645.22
2022-08-05T04:38:51.070Z,101647.97
2022-08-05T04:40:12.608Z,101653.50
2022-08-05T04:40:50.549Z,101651.50
2022-08-05T04:41:22.215Z,101652.28
2022-08-05T04:42:09.248Z,101650.72
2022-08-05T04:42:40.672Z,101651.91
2022-08-05T04:43:16.618Z,101650.72
2022-08-05T04:43:52.794Z,101644.41
2022-08-05T04:44:29.303Z,101650.72
2022-08-05T04:45:01.772Z,101649.13
2022-08-05T04:45:54.982Z,101647.16
2022-08-05T04:46:28.258Z,101644.38
2022-08-05T04:47:08.830Z,101650.31
2022-08-05T04:47:42.967Z,101646.38
2022-08-05T04:48:27.262Z,101647.16
2022-08-05T04:48:59.572Z,101651.50
2022-08-05T04:49:39.212Z,101643.63
2022-08-05T04:50:34.441Z,101642.06
2022-08-05T04:51:11.132Z,101649.59
2022-08-05T04:51:44.010Z,101644.50
2022-08-05T04:52:15.699Z,101644.06
2022-08-05T04:52:47.047Z,101648.03
2022-08-05T04:53:21.272Z,101643.63
2022-08-05T04:53:52.645Z,101655.47
2022-08-05T04:54:27.054Z,101642.44
2022-08-05T04:54:59.583Z,101659.81
2022-08-05T04:56:33.983Z,101647.25
2022-08-05T04:56:37.961Z,101642.91
2022-08-05T04:57:09.452Z,101651.97
2022-08-05T04:57:40.794Z,101644.91
2022-08-05T04:58:21.593Z,101648.84
2022-08-05T04:58:53.209Z,101650.81
2022-08-05T04:59:36.782Z,101649.25
2022-08-05T05:00:11.591Z,101648.06
2022-08-05T05:00:45.402Z,101642.53
2022-08-05T05:02:08.196Z,101648.06
2022-08-05T05:02:37.314Z,101648.88
2022-08-05T05:03:06.024Z,101646.13
2022-08-05T05:03:41.982Z,101653.22
2022-08-05T05:04:14.264Z,101644.16
2022-08-05T05:04:49.671Z,101645.72
2022-08-05T05:05:28.280Z,101652.03
2022-08-05T05:06:38.656Z,101652.41
2022-08-05T05:06:57.402Z,101649.63
2022-08-05T05:07:32.298Z,101654.38
2022-08-05T05:08:14.303Z,101650.81
2022-08-05T05:08:58.158Z,101657.16
2022-08-05T05:09:32.048Z,101654.03
2022-08-05T05:10:06.364Z,101657.19
2022-08-05T05:10:55.972Z,101648.94
2022-08-05T05:11:41.532Z,101653.28
2022-08-05T05:13:09.640Z,101659.97
2022-08-05T05:13:44.799Z,101656.44
2022-08-05T05:14:16.393Z,101658.44
2022-08-05T05:14:50.502Z,101659.63
2022-08-05T05:15:57.364Z,101658.44
2022-08-05T05:16:14.278Z,101654.09
2022-08-05T05:16:46.900Z,101656.44
2022-08-05T05:17:56.399Z,101665.50
2022-08-05T05:18:33.391Z,101664.31
2022-08-05T05:19:18.577Z,101664.69
2022-08-05T05:19:54.977Z,101665.84
2022-08-05T05:20:28.380Z,101662.31
2022-08-05T05:21:00.396Z,101665.06
2022-08-05T05:21:33.120Z,101659.59
2022-08-05T05:22:24.301Z,101662.75
2022-08-05T05:22:57.662Z,101661.97
2022-08-05T05:23:39.023Z,101661.19
2022-08-05T05:24:21.665Z,101662.78
2022-08-05T05:24:57.713Z,101661.66
2022-08-05T05:25:40.462Z,101657.31
2022-08-05T05:26:12.429Z,101658.88
2022-08-05T05:27:02.611Z,101655.34
2022-08-05T05:27:55.860Z,101661.28
2022-08-05T05:28:27.596Z,101662.06
2022-08-05T05:29:00.676Z,101660.88
2022-08-05T05:30:03.460Z,101663.22
2022-08-05T05:30:29.358Z,101662.00
2022-08-05T05:31:02.102Z,101660.81
2022-08-05T05:32:07.507Z,101667.50
2022-08-05T05:32:44.120Z,101663.91
2022-08-05T05:33:17.842Z,101667.47
2022-08-05T05:33:59.452Z,101659.56
2022-08-05T05:34:33.127Z,101664.25
2022-08-05T05:35:04.767Z,101663.84
2022-08-05T05:35:38.083Z,101659.91
2022-08-05T05:36:14.635Z,101661.13
2022-08-05T05:36:47.192Z,101663.53
2022-08-05T05:37:22.701Z,101661.19
2022-08-05T05:38:09.488Z,101662.75
2022-08-05T05:38:44.980Z,101662.75
2022-08-05T05:39:19.347Z,101663.13
2022-08-05T05:39:51.108Z,101656.44
2022-08-05T05:40:49.762Z,101656.44
2022-08-05T05:41:22.850Z,101664.75
2022-08-05T05:41:55.320Z,101667.53
2022-08-05T05:42:26.672Z,101668.75
2022-08-05T05:42:59.248Z,101665.97
2022-08-05T05:43:58.598Z,101665.91
2022-08-05T05:44:37.755Z,101667.50
2022-08-05T05:45:14.059Z,101661.97
2022-08-05T05:45:48.246Z,101666.28
2022-08-05T05:46:19.887Z,101666.28
2022-08-05T05:46:53.296Z,101669.84
2022-08-05T05:47:30.317Z,101667.09
2022-08-05T05:48:16.274Z,101669.44
2022-08-05T05:48:48.493Z,101666.69
2022-08-05T05:49:38.769Z,101669.84
2022-08-05T05:50:16.429Z,101671.03
2022-08-05T05:50:52.370Z,101672.22
2022-08-05T05:51:25.876Z,101673.78
2022-08-05T05:51:59.331Z,101671.41
2022-08-05T05:52:34.654Z,101672.19
2022-08-05T05:53:21.947Z,101671.78
2022-08-05T05:54:50.312Z,101669.41
2022-08-05T05:55:22.531Z,101675.31
2022-08-05T05:56:00.858Z,101676.47
2022-08-05T05:56:35.018Z,101670.13
2022-08-05T05:57:06.407Z,101675.59
2022-08-05T05:57:52.315Z,101670.03
2022-08-05T05:58:30.159Z,101669.63
2022-08-05T05:59:07.755Z,101674.31
2022-08-05T05:59:40.296Z,101675.50
2022-08-05T06:00:18.065Z,101676.31
2022-08-05T06:00:49.470Z,101678.28
2022-08-05T06:01:23.449Z,101672.00
2022-08-05T06:01:57.534Z,101677.94
2022-08-05T06:02:36.703Z,101678.34
2022-08-05T06:03:40.799Z,101678.34
2022-08-05T06:04:03.543Z,101675.22
2022-08-05T06:04:35.267Z,101677.63
2022-08-05T06:05:10.387Z,101678.44
2022-08-05T06:05:53.927Z,101685.53
2022-08-05T06:06:27.712Z,101680.41
2022-08-05T06:07:01.581Z,101681.19
2022-08-05T06:07:41.851Z,101685.53
2022-08-05T06:08:13.815Z,101684.34
2022-08-05T06:09:07.640Z,101680.00
2022-08-05T06:09:59.972Z,101684.72
2022-08-05T06:10:52.406Z,101683.50
2022-08-05T06:11:24.266Z,101681.88
2022-08-05T06:12:01.713Z,101683.88
2022-08-05T06:12:35.240Z,101684.25
2022-08-05T06:13:13.573Z,101680.69
2022-08-05T06:13:53.616Z,101687.00
2022-08-05T06:14:28.043Z,101681.47
2022-08-05T06:15:01.345Z,101678.72
2022-08-05T06:16:28.239Z,101682.66
2022-08-05T06:16:42.867Z,101682.59
2022-08-05T06:17:22.227Z,101684.19
2022-08-05T06:18:06.684Z,101683.38
2022-08-05T06:18:39.434Z,101675.88
2022-08-05T06:19:34.882Z,101676.69
2022-08-05T06:20:08.806Z,101683.75
2022-08-05T06:20:50.131Z,101686.47
2022-08-05T06:21:36.866Z,101679.72
2022-08-05T06:22:09.383Z,101688.72
2022-08-05T06:22:40.782Z,101687.47
2022-08-05T06:23:13.795Z,101684.66
2022-08-05T06:23:46.207Z,101695.66
2022-08-05T06:24:25.732Z,101691.28
2022-08-05T06:24:59.199Z,101685.34
2022-08-05T06:26:13.360Z,101687.34
2022-08-05T06:26:24.961Z,101693.59
2022-08-05T06:26:56.514Z,101687.66
2022-08-05T06:28:09.480Z,101695.13
2022-08-05T06:28:21.088Z,101697.03
2022-08-05T06:28:53.422Z,101691.88
2022-08-05T06:29:49.538Z,101693.44
2022-08-05T06:30:17.707Z,101699.34
2022-08-05T06:30:52.301Z,101697.75
2022-08-05T06:31:42.304Z,101695.75
2022-08-05T06:32:21.373Z,101698.91
2022-08-05T06:32:57.187Z,101695.72
2022-08-05T06:33:33.144Z,101698.06
2022-08-05T06:34:20.401Z,101695.72
2022-08-05T06:34:53.630Z,101699.69
2022-08-05T06:36:03.508Z,101695.75
2022-08-05T06:36:18.846Z,101692.59
2022-08-05T06:36:58.712Z,101690.19
2022-08-05T06:37:56.390Z,101698.06
2022-08-05T06:38:35.867Z,101690.97
2022-08-05T06:39:08.417Z,101696.13
2022-08-05T06:39:40.315Z,101694.56
2022-08-05T06:40:13.872Z,101697.69
2022-08-05T06:40:49.388Z,101693.31
2022-08-05T06:41:21.572Z,101698.44
2022-08-05T06:41:53.812Z,101698.38
2022-08-05T06:42:25.326Z,101700.31
2022-08-05T06:42:56.762Z,101696.34
2022-08-05T06:43:59.266Z,101699.06
2022-08-05T06:44:19.444Z,101697.88
2022-08-05T06:44:53.455Z,101689.56
2022-08-05T06:45:45.136Z,101702.22
2022-08-05T06:46:16.321Z,101702.25
2022-08-05T06:47:06.551Z,101694.38
2022-08-05T06:48:36.411Z,101689.25
2022-08-05T06:48:54.511Z,101690.06
2022-08-05T06:50:00.849Z,101695.19
2022-08-05T06:50:17.974Z,101694.38
2022-08-05T06:50:49.879Z,101699.06
2022-08-05T06:51:29.558Z,101703.00
2022-08-05T06:52:01.673Z,101697.41
2022-08-05T06:52:37.844Z,101704.50
2022-08-05T06:53:27.712Z,101698.56
2022-08-05T06:54:03.227Z,101697.38
2022-08-05T06:54:34.683Z,101710.00
2022-08-05T06:55:07.799Z,101700.13
2022-08-05T06:55:42.014Z,101699.69
2022-08-05T06:56:26.276Z,101709.56
2022-08-05T06:57:57.632Z,101703.97
2022-08-05T06:58:03.423Z,101708.72
2022-08-05T06:58:41.381Z,101712.22
2022-08-05T06:59:18.084Z,101707.88
2022-08-05T06:59:57.953Z,101714.19
2022-08-05T07:00:31.236Z,101716.97
2022-08-05T07:01:53.367Z,101715.75
2022-08-05T07:02:24.770Z,101718.91
2022-08-05T07:03:14.674Z,101722.44
2022-08-05T07:03:48.097Z,101713.72
2022-08-05T07:04:19.514Z,101710.59
2022-08-05T07:04:50.884Z,101714.56
2022-08-05T07:05:27.663Z,101718.91
2022-08-05T07:06:14.422Z,101718.91
2022-08-05T07:06:46.656Z,101719.28
2022-08-05T07:07:24.237Z,101718.84
2022-08-05T07:08:11.007Z,101719.97
2022-08-05T07:08:47.988Z,101723.88
2022-08-05T07:09:24.947Z,101721.91
2022-08-05T07:09:58.506Z,101717.16
2022-08-05T07:10:32.507Z,101730.56
2022-08-05T07:11:05.161Z,101718.72
2022-08-05T07:11:36.830Z,101726.25
2022-08-05T07:12:29.198Z,101725.09
2022-08-05T07:13:56.662Z,101723.19
2022-08-05T07:14:29.932Z,101727.16
2022-08-05T07:15:34.761Z,101724.31
2022-08-05T07:18:00.162Z,101722.31
2022-08-05T07:18:07.024Z,101734.19
2022-08-05T07:18:20.404Z,101738.09
2022-08-05T07:19:00.698Z,101735.31
2022-08-05T07:20:34.082Z,101737.03
2022-08-05T07:21:08.581Z,101741.78
2022-08-05T07:22:00.216Z,101736.22
2022-08-05T07:22:31.887Z,101746.53
2022-08-05T07:23:04.588Z,101737.06
2022-08-05T07:23:54.264Z,101744.63
2022-08-05T07:24:25.676Z,101737.94
2022-08-05T07:25:23.486Z,101739.13
2022-08-05T07:25:56.147Z,101745.81
2022-08-05T07:26:28.143Z,101741.03
2022-08-05T07:26:59.951Z,101746.53
2022-08-05T07:27:56.704Z,101747.22
2022-08-05T07:28:26.227Z,101747.53
2022-08-05T07:28:57.594Z,101759.34
2022-08-05T07:30:27.181Z,101759.69
2022-08-05T07:30:28.171Z,101750.22
2022-08-05T07:30:59.668Z,101758.03
2022-08-05T07:31:40.786Z,101751.72
2022-08-05T07:32:26.376Z,101756.47
2022-08-05T07:32:57.800Z,101757.25
2022-08-05T07:33:36.792Z,101756.47
2022-08-05T07:34:09.019Z,101753.34
2022-08-05T07:34:45.335Z,101763.63
2022-08-05T07:36:03.388Z,101756.53
2022-08-05T07:36:21.150Z,101758.88
2022-08-05T07:36:52.992Z,101754.47
2022-08-05T07:37:35.965Z,101762.72
2022-08-05T07:38:12.284Z,101760.34
2022-08-05T07:38:54.752Z,101759.50
2022-08-05T07:40:25.926Z,101760.28
2022-08-05T07:40:31.377Z,101757.88
2022-08-05T07:42:13.795Z,101756.13
2022-08-05T07:42:45.812Z,101757.22
2022-08-05T07:43:20.597Z,101761.16
2022-08-05T07:43:53.343Z,101766.25
2022-08-05T07:44:27.685Z,101758.75
2022-08-05T07:45:00.544Z,101758.75
2022-08-05T07:45:57.354Z,101759.53
2022-08-05T07:46:30.676Z,101765.47
2022-08-05T07:47:02.173Z,101763.13
2022-08-05T07:47:57.891Z,101761.94
2022-08-05T07:49:01.586Z,101766.25
2022-08-05T07:49:21.695Z,101763.88
2022-08-05T07:49:54.160Z,101764.22
2022-08-05T07:50:32.457Z,101769.41
2022-08-05T07:51:04.903Z,101765.06
2022-08-05T07:51:55.180Z,101767.06
2022-08-05T07:52:26.708Z,101769.41